sensor_id;sensor_type;location;lat;lon;timestamp;temperature;humidity
23149;DHT22;11743;51.228;22.498;2023-08-21T00:00:17;21.00;99.90
23149;DHT22;11743;51.228;22.498;2023-08-21T00:00:39;20.90;99.90
23149;DHT22;11743;51.228;22.498;2023-08-21T00:01:01;20.90;99.90
23149;DHT22;11743;51.228;22.498;2023-08-21T00:01:23;20.90;99.90
23149;DHT22;11743;51.228;22.498;2023-08-21T00:01:45;20.90;99.90
23149;DHT22;11743;51.228;22.498;2023-08-21T00:02:07;20.90;99.90
23149;DHT22;11743;51.228;22.498;2023-08-21T00:02:29;20.90;99.90
23149;DHT22;11743;51.228;22.498;2023-08-21T00:02:51;20.90;99.90
23149;DHT22;11743;51.228;22.498;2023-08-21T00:03:13;20.90;99.90
23149;DHT22;11743;51.228;22.498;2023-08-21T00:03:35;20.90;99.90
23149;DHT22;11743;51.228;22.498;2023-08-21T00:03:57;20.90;99.90
23149;DHT22;11743;51.228;22.498;2023-08-21T00:04:19;20.90;99.90
23149;DHT22;11743;51.228;22.498;2023-08-21T00:04:40;20.90;99.90
23149;DHT22;11743;51.228;22.498;2023-08-21T00:05:02;20.90;99.90
23149;DHT22;11743;51.228;22.498;2023-08-21T00:05:24;20.80;99.90
23149;DHT22;11743;51.228;22.498;2023-08-21T00:05:46;20.80;99.90
23149;DHT22;11743;51.228;22.498;2023-08-21T00:06:08;20.80;99.90
23149;DHT22;11743;51.228;22.498;2023-08-21T00:06:30;20.90;99.90
23149;DHT22;11743;51.228;22.498;2023-08-21T00:06:51;20.80;99.90
23149;DHT22;11743;51.228;22.498;2023-08-21T00:07:13;20.80;99.90
23149;DHT22;11743;51.228;22.498;2023-08-21T00:07:35;20.80;99.90
23149;DHT22;11743;51.228;22.498;2023-08-21T00:07:57;20.80;99.90
23149;DHT22;11743;51.228;22.498;2023-08-21T00:08:19;20.80;99.90
23149;DHT22;11743;51.228;22.498;2023-08-21T00:08:41;20.80;99.90
23149;DHT22;11743;51.228;22.498;2023-08-21T00:09:02;20.80;99.90
23149;DHT22;11743;51.228;22.498;2023-08-21T00:09:24;20.80;99.90
23149;DHT22;11743;51.228;22.498;2023-08-21T00:09:46;20.80;99.90
23149;DHT22;11743;51.228;22.498;2023-08-21T00:10:08;20.80;99.90
23149;DHT22;11743;51.228;22.498;2023-08-21T00:10:37;20.80;99.90
23149;DHT22;11743;51.228;22.498;2023-08-21T00:10:59;20.70;99.90
23149;DHT22;11743;51.228;22.498;2023-08-21T00:11:21;20.70;99.90
23149;DHT22;11743;51.228;22.498;2023-08-21T00:11:43;20.70;99.90
23149;DHT22;11743;51.228;22.498;2023-08-21T00:12:05;20.70;99.90
23149;DHT22;11743;51.228;22.498;2023-08-21T00:12:27;20.70;99.90
23149;DHT22;11743;51.228;22.498;2023-08-21T00:12:49;20.70;99.90
23149;DHT22;11743;51.228;22.498;2023-08-21T00:13:11;20.70;99.90
23149;DHT22;11743;51.228;22.498;2023-08-21T00:13:33;20.60;99.90
23149;DHT22;11743;51.228;22.498;2023-08-21T00:13:55;20.70;99.90
23149;DHT22;11743;51.228;22.498;2023-08-21T00:14:16;20.60;99.90
23149;DHT22;11743;51.228;22.498;2023-08-21T00:14:38;20.70;99.90
23149;DHT22;11743;51.228;22.498;2023-08-21T00:15:00;20.70;99.90
23149;DHT22;11743;51.228;22.498;2023-08-21T00:15:22;20.70;99.90
23149;DHT22;11743;51.228;22.498;2023-08-21T00:15:44;20.70;99.90
23149;DHT22;11743;51.228;22.498;2023-08-21T00:16:06;20.70;99.90
23149;DHT22;11743;51.228;22.498;2023-08-21T00:16:28;20.70;99.90
23149;DHT22;11743;51.228;22.498;2023-08-21T00:16:50;20.60;99.90
23149;DHT22;11743;51.228;22.498;2023-08-21T00:17:13;20.60;99.90
23149;DHT22;11743;51.228;22.498;2023-08-21T00:17:34;20.60;99.90
23149;DHT22;11743;51.228;22.498;2023-08-21T00:17:56;20.70;99.90
23149;DHT22;11743;51.228;22.498;2023-08-21T00:18:18;20.60;99.90
23149;DHT22;11743;51.228;22.498;2023-08-21T00:18:40;20.60;99.90
23149;DHT22;11743;51.228;22.498;2023-08-21T00:19:02;20.60;99.90
23149;DHT22;11743;51.228;22.498;2023-08-21T00:19:24;20.60;99.90
23149;DHT22;11743;51.228;22.498;2023-08-21T00:19:45;20.60;99.90
23149;DHT22;11743;51.228;22.498;2023-08-21T00:20:08;20.60;99.90
23149;DHT22;11743;51.228;22.498;2023-08-21T00:20:31;20.60;99.90
23149;DHT22;11743;51.228;22.498;2023-08-21T00:20:52;20.60;99.90
23149;DHT22;11743;51.228;22.498;2023-08-21T00:21:14;20.50;99.90
23149;DHT22;11743;51.228;22.498;2023-08-21T00:21:36;20.50;99.90
23149;DHT22;11743;51.228;22.498;2023-08-21T00:21:59;20.50;99.90
23149;DHT22;11743;51.228;22.498;2023-08-21T00:22:21;20.50;99.90
23149;DHT22;11743;51.228;22.498;2023-08-21T00:22:43;20.50;99.90
23149;DHT22;11743;51.228;22.498;2023-08-21T00:23:05;20.50;99.90
23149;DHT22;11743;51.228;22.498;2023-08-21T00:23:27;20.50;99.90
23149;DHT22;11743;51.228;22.498;2023-08-21T00:23:48;20.50;99.90
23149;DHT22;11743;51.228;22.498;2023-08-21T00:24:10;20.50;99.90
23149;DHT22;11743;51.228;22.498;2023-08-21T00:24:32;20.50;99.90
23149;DHT22;11743;51.228;22.498;2023-08-21T00:24:54;20.40;99.90
23149;DHT22;11743;51.228;22.498;2023-08-21T00:25:16;20.40;99.90
23149;DHT22;11743;51.228;22.498;2023-08-21T00:25:38;20.40;99.90
23149;DHT22;11743;51.228;22.498;2023-08-21T00:26:00;20.40;99.90
23149;DHT22;11743;51.228;22.498;2023-08-21T00:26:21;20.40;99.90
23149;DHT22;11743;51.228;22.498;2023-08-21T00:26:43;20.40;99.90
23149;DHT22;11743;51.228;22.498;2023-08-21T00:27:05;20.40;99.90
23149;DHT22;11743;51.228;22.498;2023-08-21T00:27:27;20.40;99.90
23149;DHT22;11743;51.228;22.498;2023-08-21T00:27:49;20.40;99.90
23149;DHT22;11743;51.228;22.498;2023-08-21T00:28:11;20.30;99.90
23149;DHT22;11743;51.228;22.498;2023-08-21T00:28:33;20.40;99.90
23149;DHT22;11743;51.228;22.498;2023-08-21T00:28:56;20.40;99.90
23149;DHT22;11743;51.228;22.498;2023-08-21T00:29:18;20.40;99.90
23149;DHT22;11743;51.228;22.498;2023-08-21T00:29:40;20.40;99.90
23149;DHT22;11743;51.228;22.498;2023-08-21T00:30:02;20.40;99.90
23149;DHT22;11743;51.228;22.498;2023-08-21T00:30:24;20.40;99.90
23149;DHT22;11743;51.228;22.498;2023-08-21T00:30:45;20.30;99.90
23149;DHT22;11743;51.228;22.498;2023-08-21T00:31:07;20.30;99.90
23149;DHT22;11743;51.228;22.498;2023-08-21T00:31:29;20.30;99.90
23149;DHT22;11743;51.228;22.498;2023-08-21T00:31:51;20.30;99.90
23149;DHT22;11743;51.228;22.498;2023-08-21T00:32:13;20.30;99.90
23149;DHT22;11743;51.228;22.498;2023-08-21T00:32:35;20.30;99.90
23149;DHT22;11743;51.228;22.498;2023-08-21T00:32:57;20.30;99.90
23149;DHT22;11743;51.228;22.498;2023-08-21T00:33:19;20.30;99.90
23149;DHT22;11743;51.228;22.498;2023-08-21T00:33:41;20.30;99.90
23149;DHT22;11743;51.228;22.498;2023-08-21T00:34:06;20.30;99.90
23149;DHT22;11743;51.228;22.498;2023-08-21T00:34:28;20.30;99.90
23149;DHT22;11743;51.228;22.498;2023-08-21T00:34:50;20.30;99.90
23149;DHT22;11743;51.228;22.498;2023-08-21T00:35:12;20.30;99.90
23149;DHT22;11743;51.228;22.498;2023-08-21T00:35:34;20.20;99.90
23149;DHT22;11743;51.228;22.498;2023-08-21T00:35:55;20.20;99.90
23149;DHT22;11743;51.228;22.498;2023-08-21T00:36:17;20.20;99.90
23149;DHT22;11743;51.228;22.498;2023-08-21T00:36:41;20.20;99.90
23149;DHT22;11743;51.228;22.498;2023-08-21T00:37:03;20.20;99.90
23149;DHT22;11743;51.228;22.498;2023-08-21T00:37:26;20.20;99.90
23149;DHT22;11743;51.228;22.498;2023-08-21T00:37:48;20.20;99.90
23149;DHT22;11743;51.228;22.498;2023-08-21T00:38:09;21.20;99.90
23149;DHT22;11743;51.228;22.498;2023-08-21T00:38:32;20.20;99.90
23149;DHT22;11743;51.228;22.498;2023-08-21T00:38:54;20.20;99.90
23149;DHT22;11743;51.228;22.498;2023-08-21T00:39:16;20.20;99.90
23149;DHT22;11743;51.228;22.498;2023-08-21T00:39:37;20.20;99.90
23149;DHT22;11743;51.228;22.498;2023-08-21T00:39:59;20.20;99.90
23149;DHT22;11743;51.228;22.498;2023-08-21T00:40:21;20.20;99.90
23149;DHT22;11743;51.228;22.498;2023-08-21T00:40:43;20.10;99.90
23149;DHT22;11743;51.228;22.498;2023-08-21T00:41:04;20.10;99.90
23149;DHT22;11743;51.228;22.498;2023-08-21T00:41:26;20.10;99.90
23149;DHT22;11743;51.228;22.498;2023-08-21T00:41:48;20.10;99.90
23149;DHT22;11743;51.228;22.498;2023-08-21T00:42:10;20.10;99.90
23149;DHT22;11743;51.228;22.498;2023-08-21T00:42:32;20.10;99.90
23149;DHT22;11743;51.228;22.498;2023-08-21T00:42:54;20.10;99.90
23149;DHT22;11743;51.228;22.498;2023-08-21T00:43:17;20.10;99.90
23149;DHT22;11743;51.228;22.498;2023-08-21T00:43:39;20.10;99.90
23149;DHT22;11743;51.228;22.498;2023-08-21T00:44:01;20.10;99.90
23149;DHT22;11743;51.228;22.498;2023-08-21T00:44:23;20.10;99.90
23149;DHT22;11743;51.228;22.498;2023-08-21T00:44:45;20.10;99.90
23149;DHT22;11743;51.228;22.498;2023-08-21T00:45:07;20.10;99.90
23149;DHT22;11743;51.228;22.498;2023-08-21T00:45:30;20.10;99.90
23149;DHT22;11743;51.228;22.498;2023-08-21T00:45:52;20.00;99.90
23149;DHT22;11743;51.228;22.498;2023-08-21T00:46:14;20.00;99.90
23149;DHT22;11743;51.228;22.498;2023-08-21T00:46:37;20.00;99.90
23149;DHT22;11743;51.228;22.498;2023-08-21T00:46:59;20.00;99.90
23149;DHT22;11743;51.228;22.498;2023-08-21T00:47:21;20.00;99.90
23149;DHT22;11743;51.228;22.498;2023-08-21T00:47:43;20.00;99.90
23149;DHT22;11743;51.228;22.498;2023-08-21T00:48:06;20.00;99.90
23149;DHT22;11743;51.228;22.498;2023-08-21T00:48:28;20.00;99.90
23149;DHT22;11743;51.228;22.498;2023-08-21T00:48:50;20.00;99.90
23149;DHT22;11743;51.228;22.498;2023-08-21T00:49:12;20.00;99.90
23149;DHT22;11743;51.228;22.498;2023-08-21T00:49:34;20.00;99.90
23149;DHT22;11743;51.228;22.498;2023-08-21T00:49:56;20.00;99.90
23149;DHT22;11743;51.228;22.498;2023-08-21T00:50:18;20.00;99.90
23149;DHT22;11743;51.228;22.498;2023-08-21T00:50:40;20.00;99.90
23149;DHT22;11743;51.228;22.498;2023-08-21T00:51:03;20.00;99.90
23149;DHT22;11743;51.228;22.498;2023-08-21T00:51:26;20.00;99.90
23149;DHT22;11743;51.228;22.498;2023-08-21T00:51:50;20.00;99.90
23149;DHT22;11743;51.228;22.498;2023-08-21T00:52:14;20.00;99.90
23149;DHT22;11743;51.228;22.498;2023-08-21T00:52:40;20.00;99.90
23149;DHT22;11743;51.228;22.498;2023-08-21T00:53:04;20.00;99.90
23149;DHT22;11743;51.228;22.498;2023-08-21T00:53:28;19.90;99.90
23149;DHT22;11743;51.228;22.498;2023-08-21T00:53:50;20.00;99.90
23149;DHT22;11743;51.228;22.498;2023-08-21T00:54:12;19.90;99.90
23149;DHT22;11743;51.228;22.498;2023-08-21T00:54:34;19.90;99.90
23149;DHT22;11743;51.228;22.498;2023-08-21T00:54:56;20.00;99.90
23149;DHT22;11743;51.228;22.498;2023-08-21T00:55:18;19.90;99.90
23149;DHT22;11743;51.228;22.498;2023-08-21T00:55:41;19.90;99.90
23149;DHT22;11743;51.228;22.498;2023-08-21T00:56:03;19.90;99.90
23149;DHT22;11743;51.228;22.498;2023-08-21T00:56:25;19.90;99.90
23149;DHT22;11743;51.228;22.498;2023-08-21T00:56:47;20.00;99.90
23149;DHT22;11743;51.228;22.498;2023-08-21T00:57:12;19.90;99.90
23149;DHT22;11743;51.228;22.498;2023-08-21T00:57:36;19.90;99.90
23149;DHT22;11743;51.228;22.498;2023-08-21T00:57:59;19.90;99.90
23149;DHT22;11743;51.228;22.498;2023-08-21T00:58:21;19.90;99.90
23149;DHT22;11743;51.228;22.498;2023-08-21T00:58:43;19.90;99.90
23149;DHT22;11743;51.228;22.498;2023-08-21T00:59:05;19.90;99.90
23149;DHT22;11743;51.228;22.498;2023-08-21T00:59:27;19.90;99.90
23149;DHT22;11743;51.228;22.498;2023-08-21T00:59:49;19.90;99.90
23149;DHT22;11743;51.228;22.498;2023-08-21T01:00:12;19.90;99.90
23149;DHT22;11743;51.228;22.498;2023-08-21T01:00:35;19.90;99.90
23149;DHT22;11743;51.228;22.498;2023-08-21T01:00:57;19.90;99.90
23149;DHT22;11743;51.228;22.498;2023-08-21T01:01:23;19.90;99.90
23149;DHT22;11743;51.228;22.498;2023-08-21T01:01:46;19.90;99.90
23149;DHT22;11743;51.228;22.498;2023-08-21T01:02:08;19.90;99.90
23149;DHT22;11743;51.228;22.498;2023-08-21T01:02:30;19.90;99.90
23149;DHT22;11743;51.228;22.498;2023-08-21T01:02:52;19.90;99.90
23149;DHT22;11743;51.228;22.498;2023-08-21T01:03:14;19.90;99.90
23149;DHT22;11743;51.228;22.498;2023-08-21T01:03:36;19.90;99.90
23149;DHT22;11743;51.228;22.498;2023-08-21T01:03:58;19.90;99.90
23149;DHT22;11743;51.228;22.498;2023-08-21T01:04:20;19.90;99.90
23149;DHT22;11743;51.228;22.498;2023-08-21T01:04:43;19.90;99.90
23149;DHT22;11743;51.228;22.498;2023-08-21T01:05:05;19.90;99.90
23149;DHT22;11743;51.228;22.498;2023-08-21T01:05:27;19.90;99.90
23149;DHT22;11743;51.228;22.498;2023-08-21T01:05:49;19.90;99.90
23149;DHT22;11743;51.228;22.498;2023-08-21T01:06:11;19.90;99.90
23149;DHT22;11743;51.228;22.498;2023-08-21T01:06:32;19.90;99.90
23149;DHT22;11743;51.228;22.498;2023-08-21T01:06:57;19.90;99.90
23149;DHT22;11743;51.228;22.498;2023-08-21T01:07:19;19.80;99.90
23149;DHT22;11743;51.228;22.498;2023-08-21T01:07:52;19.90;99.90
23149;DHT22;11743;51.228;22.498;2023-08-21T01:08:25;19.90;99.90
23149;DHT22;11743;51.228;22.498;2023-08-21T01:10:11;19.90;99.90
23149;DHT22;11743;51.228;22.498;2023-08-21T01:10:45;19.90;99.90
23149;DHT22;11743;51.228;22.498;2023-08-21T01:11:16;19.80;99.90
23149;DHT22;11743;51.228;22.498;2023-08-21T01:11:48;19.80;99.90
23149;DHT22;11743;51.228;22.498;2023-08-21T01:12:14;19.80;99.90
23149;DHT22;11743;51.228;22.498;2023-08-21T01:12:46;19.80;99.90
23149;DHT22;11743;51.228;22.498;2023-08-21T01:14:19;19.80;99.90
23149;DHT22;11743;51.228;22.498;2023-08-21T01:14:59;19.80;99.90
23149;DHT22;11743;51.228;22.498;2023-08-21T01:15:22;19.80;99.90
23149;DHT22;11743;51.228;22.498;2023-08-21T01:15:46;19.80;99.90
23149;DHT22;11743;51.228;22.498;2023-08-21T01:16:09;19.80;99.90
23149;DHT22;11743;51.228;22.498;2023-08-21T01:16:32;19.80;99.90
23149;DHT22;11743;51.228;22.498;2023-08-21T01:16:58;19.80;99.90
23149;DHT22;11743;51.228;22.498;2023-08-21T01:17:21;19.80;99.90
23149;DHT22;11743;51.228;22.498;2023-08-21T01:17:46;19.80;99.90
23149;DHT22;11743;51.228;22.498;2023-08-21T01:18:09;19.80;99.90
23149;DHT22;11743;51.228;22.498;2023-08-21T01:18:31;19.80;99.90
23149;DHT22;11743;51.228;22.498;2023-08-21T01:18:55;19.80;99.90
23149;DHT22;11743;51.228;22.498;2023-08-21T01:19:44;19.80;99.90
23149;DHT22;11743;51.228;22.498;2023-08-21T01:20:08;19.80;99.90
23149;DHT22;11743;51.228;22.498;2023-08-21T01:20:32;19.80;99.90
23149;DHT22;11743;51.228;22.498;2023-08-21T01:20:55;19.80;99.90
23149;DHT22;11743;51.228;22.498;2023-08-21T01:21:17;19.80;99.90
23149;DHT22;11743;51.228;22.498;2023-08-21T01:21:39;19.80;99.90
23149;DHT22;11743;51.228;22.498;2023-08-21T01:22:01;19.80;99.90
23149;DHT22;11743;51.228;22.498;2023-08-21T01:22:27;19.80;99.90
23149;DHT22;11743;51.228;22.498;2023-08-21T01:22:49;19.80;99.90
23149;DHT22;11743;51.228;22.498;2023-08-21T01:23:33;19.80;99.90
23149;DHT22;11743;51.228;22.498;2023-08-21T01:23:55;19.80;99.90
23149;DHT22;11743;51.228;22.498;2023-08-21T01:24:19;19.80;99.90
23149;DHT22;11743;51.228;22.498;2023-08-21T01:24:41;19.80;99.90
23149;DHT22;11743;51.228;22.498;2023-08-21T01:25:07;19.70;99.90
23149;DHT22;11743;51.228;22.498;2023-08-21T01:25:30;19.80;99.90
23149;DHT22;11743;51.228;22.498;2023-08-21T01:25:52;19.80;99.90
23149;DHT22;11743;51.228;22.498;2023-08-21T01:26:14;19.80;99.90
23149;DHT22;11743;51.228;22.498;2023-08-21T01:26:35;19.80;99.90
23149;DHT22;11743;51.228;22.498;2023-08-21T01:26:57;19.80;99.90
23149;DHT22;11743;51.228;22.498;2023-08-21T01:27:19;19.70;99.90
23149;DHT22;11743;51.228;22.498;2023-08-21T01:27:48;19.80;99.90
23149;DHT22;11743;51.228;22.498;2023-08-21T01:28:10;19.70;99.90
23149;DHT22;11743;51.228;22.498;2023-08-21T01:28:33;19.80;99.90
23149;DHT22;11743;51.228;22.498;2023-08-21T01:28:55;19.80;99.90
23149;DHT22;11743;51.228;22.498;2023-08-21T01:29:17;19.70;99.90
23149;DHT22;11743;51.228;22.498;2023-08-21T01:29:39;19.70;99.90
23149;DHT22;11743;51.228;22.498;2023-08-21T01:30:03;19.70;99.90
23149;DHT22;11743;51.228;22.498;2023-08-21T01:30:27;19.70;99.90
23149;DHT22;11743;51.228;22.498;2023-08-21T01:31:15;19.70;99.90
23149;DHT22;11743;51.228;22.498;2023-08-21T01:31:37;19.70;99.90
23149;DHT22;11743;51.228;22.498;2023-08-21T01:33:16;19.70;99.90
23149;DHT22;11743;51.228;22.498;2023-08-21T01:33:44;19.70;99.90
23149;DHT22;11743;51.228;22.498;2023-08-21T01:34:09;19.70;99.90
23149;DHT22;11743;51.228;22.498;2023-08-21T01:34:36;19.70;99.90
23149;DHT22;11743;51.228;22.498;2023-08-21T01:34:59;19.70;99.90
23149;DHT22;11743;51.228;22.498;2023-08-21T01:35:21;19.70;99.90
23149;DHT22;11743;51.228;22.498;2023-08-21T01:35:44;19.70;99.90
23149;DHT22;11743;51.228;22.498;2023-08-21T01:36:06;19.70;99.90
23149;DHT22;11743;51.228;22.498;2023-08-21T01:36:28;19.70;99.90
23149;DHT22;11743;51.228;22.498;2023-08-21T01:36:51;19.70;99.90
23149;DHT22;11743;51.228;22.498;2023-08-21T01:37:13;19.70;99.90
23149;DHT22;11743;51.228;22.498;2023-08-21T01:37:35;19.70;99.90
23149;DHT22;11743;51.228;22.498;2023-08-21T01:37:58;19.70;99.90
23149;DHT22;11743;51.228;22.498;2023-08-21T01:38:20;19.70;99.90
23149;DHT22;11743;51.228;22.498;2023-08-21T01:38:42;19.70;99.90
23149;DHT22;11743;51.228;22.498;2023-08-21T01:39:04;19.70;99.90
23149;DHT22;11743;51.228;22.498;2023-08-21T01:39:27;19.70;99.90
23149;DHT22;11743;51.228;22.498;2023-08-21T01:39:50;19.70;99.90
23149;DHT22;11743;51.228;22.498;2023-08-21T01:40:12;19.70;99.90
23149;DHT22;11743;51.228;22.498;2023-08-21T01:40:34;19.70;99.90
23149;DHT22;11743;51.228;22.498;2023-08-21T01:40:55;19.70;99.90
23149;DHT22;11743;51.228;22.498;2023-08-21T01:41:17;19.70;99.90
23149;DHT22;11743;51.228;22.498;2023-08-21T01:41:40;19.70;99.90
23149;DHT22;11743;51.228;22.498;2023-08-21T01:42:02;19.70;99.90
23149;DHT22;11743;51.228;22.498;2023-08-21T01:42:26;19.60;99.90
23149;DHT22;11743;51.228;22.498;2023-08-21T01:42:48;19.60;99.90
23149;DHT22;11743;51.228;22.498;2023-08-21T01:43:10;19.60;99.90
23149;DHT22;11743;51.228;22.498;2023-08-21T01:43:32;19.60;99.90
23149;DHT22;11743;51.228;22.498;2023-08-21T01:43:53;19.60;99.90
23149;DHT22;11743;51.228;22.498;2023-08-21T01:44:15;19.60;99.90
23149;DHT22;11743;51.228;22.498;2023-08-21T01:44:37;19.60;99.90
23149;DHT22;11743;51.228;22.498;2023-08-21T01:44:59;19.60;99.90
23149;DHT22;11743;51.228;22.498;2023-08-21T01:45:22;19.60;99.90
23149;DHT22;11743;51.228;22.498;2023-08-21T01:45:44;19.60;99.90
23149;DHT22;11743;51.228;22.498;2023-08-21T01:46:06;19.60;99.90
23149;DHT22;11743;51.228;22.498;2023-08-21T01:46:28;19.60;99.90
23149;DHT22;11743;51.228;22.498;2023-08-21T01:46:50;19.60;99.90
23149;DHT22;11743;51.228;22.498;2023-08-21T01:47:13;19.60;99.90
23149;DHT22;11743;51.228;22.498;2023-08-21T01:47:35;19.60;99.90
23149;DHT22;11743;51.228;22.498;2023-08-21T01:47:57;19.60;99.90
23149;DHT22;11743;51.228;22.498;2023-08-21T01:48:18;19.60;99.90
23149;DHT22;11743;51.228;22.498;2023-08-21T01:48:40;19.60;99.90
23149;DHT22;11743;51.228;22.498;2023-08-21T01:49:02;19.60;99.90
23149;DHT22;11743;51.228;22.498;2023-08-21T01:49:24;19.60;99.90
23149;DHT22;11743;51.228;22.498;2023-08-21T01:49:46;19.60;99.90
23149;DHT22;11743;51.228;22.498;2023-08-21T01:50:08;19.60;99.90
23149;DHT22;11743;51.228;22.498;2023-08-21T01:50:31;19.60;99.90
23149;DHT22;11743;51.228;22.498;2023-08-21T01:50:53;19.60;99.90
23149;DHT22;11743;51.228;22.498;2023-08-21T01:51:14;19.60;99.90
23149;DHT22;11743;51.228;22.498;2023-08-21T01:51:36;19.60;99.90
23149;DHT22;11743;51.228;22.498;2023-08-21T01:51:58;19.60;99.90
23149;DHT22;11743;51.228;22.498;2023-08-21T01:52:20;19.60;99.90
23149;DHT22;11743;51.228;22.498;2023-08-21T01:52:42;19.60;99.90
23149;DHT22;11743;51.228;22.498;2023-08-21T01:53:04;19.60;99.90
23149;DHT22;11743;51.228;22.498;2023-08-21T01:53:25;19.60;99.90
23149;DHT22;11743;51.228;22.498;2023-08-21T01:53:47;19.60;99.90
23149;DHT22;11743;51.228;22.498;2023-08-21T01:54:09;19.60;99.90
23149;DHT22;11743;51.228;22.498;2023-08-21T01:54:31;19.60;99.90
23149;DHT22;11743;51.228;22.498;2023-08-21T01:54:53;19.60;99.90
23149;DHT22;11743;51.228;22.498;2023-08-21T01:55:15;19.60;99.90
23149;DHT22;11743;51.228;22.498;2023-08-21T01:55:36;19.60;99.90
23149;DHT22;11743;51.228;22.498;2023-08-21T01:55:58;19.60;99.90
23149;DHT22;11743;51.228;22.498;2023-08-21T01:56:20;19.60;99.90
23149;DHT22;11743;51.228;22.498;2023-08-21T01:56:42;19.60;99.90
23149;DHT22;11743;51.228;22.498;2023-08-21T01:57:03;19.60;99.90
23149;DHT22;11743;51.228;22.498;2023-08-21T01:57:25;19.60;99.90
23149;DHT22;11743;51.228;22.498;2023-08-21T01:57:47;19.60;99.90
23149;DHT22;11743;51.228;22.498;2023-08-21T01:58:09;19.60;99.90
23149;DHT22;11743;51.228;22.498;2023-08-21T01:58:31;19.60;99.90
23149;DHT22;11743;51.228;22.498;2023-08-21T01:58:52;19.60;99.90
23149;DHT22;11743;51.228;22.498;2023-08-21T01:59:16;19.60;99.90
23149;DHT22;11743;51.228;22.498;2023-08-21T01:59:38;19.60;99.90
23149;DHT22;11743;51.228;22.498;2023-08-21T02:00:00;19.60;99.90
23149;DHT22;11743;51.228;22.498;2023-08-21T02:00:22;19.60;99.90
23149;DHT22;11743;51.228;22.498;2023-08-21T02:00:46;19.60;99.90
23149;DHT22;11743;51.228;22.498;2023-08-21T02:01:08;19.60;99.90
23149;DHT22;11743;51.228;22.498;2023-08-21T02:01:30;19.60;99.90
23149;DHT22;11743;51.228;22.498;2023-08-21T02:01:52;19.60;99.90
23149;DHT22;11743;51.228;22.498;2023-08-21T02:02:15;19.60;99.90
23149;DHT22;11743;51.228;22.498;2023-08-21T02:02:37;19.60;99.90
23149;DHT22;11743;51.228;22.498;2023-08-21T02:02:59;19.60;99.90
23149;DHT22;11743;51.228;22.498;2023-08-21T02:03:21;19.60;99.90
23149;DHT22;11743;51.228;22.498;2023-08-21T02:03:43;19.60;99.90
23149;DHT22;11743;51.228;22.498;2023-08-21T02:04:05;19.60;99.90
23149;DHT22;11743;51.228;22.498;2023-08-21T02:04:27;19.60;99.90
23149;DHT22;11743;51.228;22.498;2023-08-21T02:04:49;19.60;99.90
23149;DHT22;11743;51.228;22.498;2023-08-21T02:05:11;19.60;99.90
23149;DHT22;11743;51.228;22.498;2023-08-21T02:05:38;19.60;99.90
23149;DHT22;11743;51.228;22.498;2023-08-21T02:06:00;19.60;99.90
23149;DHT22;11743;51.228;22.498;2023-08-21T02:06:22;19.60;99.90
23149;DHT22;11743;51.228;22.498;2023-08-21T02:06:44;19.60;99.90
23149;DHT22;11743;51.228;22.498;2023-08-21T02:07:05;19.60;99.90
23149;DHT22;11743;51.228;22.498;2023-08-21T02:07:28;19.60;99.90
23149;DHT22;11743;51.228;22.498;2023-08-21T02:07:50;19.60;99.90
23149;DHT22;11743;51.228;22.498;2023-08-21T02:08:14;19.60;99.90
23149;DHT22;11743;51.228;22.498;2023-08-21T02:08:36;19.60;99.90
23149;DHT22;11743;51.228;22.498;2023-08-21T02:08:57;19.60;99.90
23149;DHT22;11743;51.228;22.498;2023-08-21T02:09:19;19.60;99.90
23149;DHT22;11743;51.228;22.498;2023-08-21T02:09:41;19.50;99.90
23149;DHT22;11743;51.228;22.498;2023-08-21T02:10:03;19.60;99.90
23149;DHT22;11743;51.228;22.498;2023-08-21T02:10:25;19.60;99.90
23149;DHT22;11743;51.228;22.498;2023-08-21T02:10:51;19.60;99.90
23149;DHT22;11743;51.228;22.498;2023-08-21T02:11:12;19.60;99.90
23149;DHT22;11743;51.228;22.498;2023-08-21T02:11:34;19.60;99.90
23149;DHT22;11743;51.228;22.498;2023-08-21T02:11:56;19.60;99.90
23149;DHT22;11743;51.228;22.498;2023-08-21T02:12:18;19.60;99.90
23149;DHT22;11743;51.228;22.498;2023-08-21T02:12:40;19.50;99.90
23149;DHT22;11743;51.228;22.498;2023-08-21T02:13:02;19.60;99.90
23149;DHT22;11743;51.228;22.498;2023-08-21T02:13:24;19.50;99.90
23149;DHT22;11743;51.228;22.498;2023-08-21T02:13:46;19.60;99.90
23149;DHT22;11743;51.228;22.498;2023-08-21T02:14:08;19.50;99.90
23149;DHT22;11743;51.228;22.498;2023-08-21T02:14:30;19.60;99.90
23149;DHT22;11743;51.228;22.498;2023-08-21T02:14:52;19.60;99.90
23149;DHT22;11743;51.228;22.498;2023-08-21T02:15:14;19.50;99.90
23149;DHT22;11743;51.228;22.498;2023-08-21T02:15:36;19.50;99.90
23149;DHT22;11743;51.228;22.498;2023-08-21T02:15:57;19.50;99.90
23149;DHT22;11743;51.228;22.498;2023-08-21T02:16:19;19.50;99.90
23149;DHT22;11743;51.228;22.498;2023-08-21T02:16:43;19.50;99.90
23149;DHT22;11743;51.228;22.498;2023-08-21T02:17:05;19.50;99.90
23149;DHT22;11743;51.228;22.498;2023-08-21T02:17:27;19.50;99.90
23149;DHT22;11743;51.228;22.498;2023-08-21T02:17:49;19.50;99.90
23149;DHT22;11743;51.228;22.498;2023-08-21T02:18:11;19.50;99.90
23149;DHT22;11743;51.228;22.498;2023-08-21T02:18:32;19.50;99.90
23149;DHT22;11743;51.228;22.498;2023-08-21T02:18:54;19.50;99.90
23149;DHT22;11743;51.228;22.498;2023-08-21T02:19:16;19.50;99.90
23149;DHT22;11743;51.228;22.498;2023-08-21T02:19:38;19.50;99.90
23149;DHT22;11743;51.228;22.498;2023-08-21T02:20:00;19.50;99.90
23149;DHT22;11743;51.228;22.498;2023-08-21T02:20:22;19.50;99.90
23149;DHT22;11743;51.228;22.498;2023-08-21T02:20:43;19.50;99.90
23149;DHT22;11743;51.228;22.498;2023-08-21T02:21:05;19.50;99.90
23149;DHT22;11743;51.228;22.498;2023-08-21T02:21:27;19.50;99.90
23149;DHT22;11743;51.228;22.498;2023-08-21T02:21:49;19.50;99.90
23149;DHT22;11743;51.228;22.498;2023-08-21T02:22:11;19.50;99.90
23149;DHT22;11743;51.228;22.498;2023-08-21T02:22:33;19.50;99.90
23149;DHT22;11743;51.228;22.498;2023-08-21T02:22:54;19.50;99.90
23149;DHT22;11743;51.228;22.498;2023-08-21T02:23:16;19.50;99.90
23149;DHT22;11743;51.228;22.498;2023-08-21T02:23:38;19.50;99.90
23149;DHT22;11743;51.228;22.498;2023-08-21T02:24:00;19.50;99.90
23149;DHT22;11743;51.228;22.498;2023-08-21T02:24:22;19.50;99.90
23149;DHT22;11743;51.228;22.498;2023-08-21T02:24:43;19.50;99.90
23149;DHT22;11743;51.228;22.498;2023-08-21T02:25:05;19.50;99.90